Date,TemperatureHighF,TemperatureAvgF,TemperatureLowF,DewpointHighF,DewpointAvgF,DewpointLowF,HumidityHigh,HumidityAvg,HumidityLow,PressureMaxIn,PressureMinIn,WindSpeedMaxMPH,WindSpeedAvgMPH,GustSpeedMaxMPH,PrecipitationSumIn
2013-2-1,49,36,22,23,17,10,87,51,22,30.26,30.08,12,4,28,0.00
2013-2-2,58,38,20,23,14,3,81,45,12,30.46,30.21,11,2,22,0.00
2013-2-3,52,36,22,17,11,-3,68,40,10,30.27,29.92,7,1,15,0.00
2013-2-4,56,42,28,15,6,-1,47,25,12,30.08,29.78,13,2,22,0.00
2013-2-5,61,45,27,20,15,10,57,31,17,30.13,29.76,10,2,21,0.00
2013-2-6,55,41,28,34,22,16,84,52,22,30.06,29.78,10,2,19,0.00
2013-2-7,48,36,24,32,18,7,91,54,21,30.29,30.06,7,2,15,0.00
2013-2-8,51,32,17,14,9,0,73,44,12,30.17,29.76,3,1,9,0.00
2013-2-9,39,30,23,27,18,10,84,64,39,29.84,29.66,4,2,11,0.00
2013-2-10,36,28,21,20,13,3,83,57,26,30.22,29.67,6,2,15,0.00
2013-2-11,27,22,16,17,13,8,82,68,54,30.30,30.19,4,1,9,0.00
2013-2-12,42,28,10,11,2,-12,81,41,10,30.33,30.13,6,1,11,0.00
2013-2-13,48,34,18,12,8,3,61,36,19,30.16,30.02,13,3,24,0.00
2013-2-14,37,27,20,23,17,9,88,69,31,30.50,30.01,6,1,13,0.04
2013-2-15,41,26,13,21,13,1,85,60,19,30.57,30.37,7,2,16,0.05
2013-2-16,56,45,20,17,10,4,77,26,13,30.37,29.89,14,4,27,0.00
2013-2-17,60,48,32,16,2,-9,50,18,6,29.90,29.46,16,6,28,0.00
2013-2-18,42,32,22,19,7,-5,74,40,15,30.24,29.72,12,4,21,0.00
2013-2-19,40,29,20,14,8,3,61,44,24,30.25,29.93,3,1,9,0.00
2013-2-20,37,26,20,27,16,12,92,69,40,29.94,29.76,4,2,9,0.00
2013-2-21,28,21,15,20,16,11,89,81,67,30.15,29.86,3,1,9,0.23
2013-2-22,33,24,14,19,15,8,87,68,52,30.17,30.02,6,2,13,0.03
2013-2-23,40,27,13,27,15,7,89,62,41,30.03,29.75,4,1,9,0.00
2013-2-24,29,27,23,27,24,18,93,91,80,30.31,29.80,6,1,16,0.03
2013-2-25,34,23,9,19,14,5,87,70,46,30.35,30.04,6,1,14,0.09
2013-2-26,33,26,15,25,18,11,90,71,46,30.30,29.96,7,1,13,0.02
2013-2-27,37,27,15,15,9,1,72,50,26,30.48,30.28,5,2,11,0.00
2013-2-28,43,32,15,17,8,0,70,38,20,30.49,30.23,11,3,24,0.00